createdAt,value
2019-05-13T00:00:10.055Z,4.10
2019-05-13T00:02:36.833Z,4.20
2019-05-13T00:05:04.016Z,4.30
2019-05-13T00:07:34.095Z,4.40
2019-05-13T00:10:00.626Z,4.40
2019-05-13T00:12:27.690Z,4.30
2019-05-13T00:14:54.723Z,4.20
2019-05-13T00:17:23.567Z,4.20
2019-05-13T00:19:50.611Z,4.10
2019-05-13T00:22:17.535Z,4.10
2019-05-13T00:24:44.610Z,4.20
2019-05-13T00:27:14.134Z,4.20
2019-05-13T00:29:44.252Z,4.10
2019-05-13T00:32:10.678Z,4.00
2019-05-13T00:34:37.490Z,3.90
2019-05-13T00:37:10.750Z,3.70
2019-05-13T00:39:33.856Z,3.60
2019-05-13T00:42:00.734Z,3.60
2019-05-13T00:44:28.142Z,3.60
2019-05-13T00:46:55.167Z,3.60
2019-05-13T00:49:23.851Z,3.60
2019-05-13T00:51:50.837Z,3.70
2019-05-13T00:54:17.620Z,3.80
2019-05-13T00:56:44.667Z,4.00
2019-05-13T00:59:14.012Z,4.00
2019-05-13T01:01:40.490Z,4.00
2019-05-13T01:04:08.303Z,3.90
2019-05-13T01:06:35.130Z,3.90
2019-05-13T01:09:04.139Z,3.90
2019-05-13T01:11:34.252Z,3.90
2019-05-13T01:14:00.895Z,3.90
2019-05-13T01:16:27.706Z,3.90
2019-05-13T01:18:54.522Z,4.00
2019-05-13T01:21:23.867Z,4.00
2019-05-13T01:23:50.954Z,3.90
2019-05-13T01:26:17.762Z,4.00
2019-05-13T01:28:44.541Z,4.00
2019-05-13T01:31:48.607Z,4.00
2019-05-13T01:34:15.418Z,4.20
2019-05-13T01:36:44.487Z,4.00
2019-05-13T01:39:13.709Z,4.00
2019-05-13T01:41:54.118Z,4.00
2019-05-13T01:44:21.149Z,4.00
2019-05-13T01:46:47.974Z,3.80
2019-05-13T01:49:14.911Z,3.80
2019-05-13T01:51:43.860Z,3.70
2019-05-13T01:54:14.015Z,3.70
2019-05-13T01:56:41.338Z,3.70
2019-05-13T01:59:08.405Z,3.70
2019-05-13T02:01:35.233Z,3.80
2019-05-13T02:04:03.923Z,3.70
2019-05-13T02:06:33.536Z,3.70
2019-05-13T02:08:59.723Z,3.70
2019-05-13T02:11:26.866Z,3.70
2019-05-13T02:13:54.136Z,3.70
2019-05-13T02:16:21.310Z,3.70
2019-05-13T02:18:48.160Z,3.70
2019-05-13T02:21:15.072Z,3.70
2019-05-13T02:23:44.139Z,3.60
2019-05-13T02:26:13.434Z,3.70
2019-05-13T02:28:40.129Z,3.70
2019-05-13T02:31:06.949Z,3.70
2019-05-13T02:33:34.234Z,3.70
2019-05-13T02:36:02.899Z,3.70
2019-05-13T02:38:34.845Z,3.60
2019-05-13T02:41:02.582Z,3.60
2019-05-13T02:43:32.959Z,3.50
2019-05-13T02:45:58.802Z,3.50
2019-05-13T02:48:25.629Z,3.40
2019-05-13T02:50:53.536Z,3.50
2019-05-13T02:53:23.659Z,3.40
2019-05-13T02:55:52.453Z,3.40
2019-05-13T02:58:18.830Z,3.20
2019-05-13T03:00:45.744Z,3.20
2019-05-13T03:03:13.676Z,3.20
2019-05-13T03:05:42.832Z,3.20
2019-05-13T03:08:12.597Z,3.20
2019-05-13T03:10:39.358Z,3.10
2019-05-13T03:13:06.233Z,2.90
2019-05-13T03:15:44.745Z,2.80
2019-05-13T03:18:13.351Z,2.90
2019-05-13T03:20:42.881Z,2.90
2019-05-13T03:23:09.120Z,3.00
2019-05-13T03:25:35.935Z,3.00
2019-05-13T03:28:03.570Z,3.10
2019-05-13T03:30:35.241Z,3.00
2019-05-13T03:33:07.966Z,3.10
2019-05-13T03:35:29.030Z,3.10
2019-05-13T03:38:12.463Z,3.10
2019-05-13T03:40:42.619Z,3.00
2019-05-13T03:43:12.579Z,3.10
2019-05-13T03:45:39.505Z,3.00
2019-05-13T03:48:06.507Z,3.10
2019-05-13T03:50:34.526Z,3.10
2019-05-13T03:53:03.047Z,3.30
2019-05-13T03:55:32.845Z,3.40
2019-05-13T03:58:02.607Z,3.40
2019-05-13T04:00:28.003Z,3.60
2019-05-13T04:02:55.022Z,3.70
2019-05-13T04:05:23.269Z,3.70
2019-05-13T04:07:52.275Z,3.80
2019-05-13T04:10:22.414Z,4.00
2019-05-13T04:12:47.946Z,4.10
2019-05-13T04:15:15.259Z,4.20
2019-05-13T04:17:42.883Z,4.30
2019-05-13T04:20:12.662Z,4.40
2019-05-13T04:22:42.331Z,4.40
2019-05-13T04:25:08.557Z,4.50
2019-05-13T04:27:36.271Z,4.50
2019-05-13T04:30:05.059Z,4.60
2019-05-13T04:32:33.584Z,4.70
2019-05-13T04:35:03.747Z,4.70
2019-05-13T04:37:32.637Z,4.80
2019-05-13T04:39:58.438Z,4.90
2019-05-13T04:42:25.746Z,5.00
2019-05-13T04:44:53.445Z,5.10
2019-05-13T04:47:22.990Z,5.20
2019-05-13T04:49:49.416Z,5.30
2019-05-13T04:52:16.498Z,5.40
2019-05-13T04:54:44.013Z,5.50
2019-05-13T04:57:12.351Z,5.60
2019-05-13T04:59:44.198Z,5.70
2019-05-13T05:02:54.544Z,5.80
2019-05-13T05:05:54.559Z,5.90
2019-05-13T05:08:37.338Z,6.10
2019-05-13T05:11:47.652Z,6.40
2019-05-13T05:14:33.933Z,6.70
2019-05-13T05:17:34.584Z,6.90
2019-05-13T05:20:27.857Z,7.40
2019-05-13T05:23:11.148Z,7.90
2019-05-13T05:26:02.577Z,8.60
2019-05-13T05:29:02.333Z,8.90
2019-05-13T05:32:02.141Z,9.00
2019-05-13T05:35:06.623Z,9.50
2019-05-13T05:38:12.063Z,9.90
2019-05-13T05:40:42.580Z,10.20
2019-05-13T05:43:11.609Z,10.20
2019-05-13T05:45:41.179Z,10.30
2019-05-13T05:48:11.841Z,10.40
2019-05-13T05:50:42.395Z,10.90
2019-05-13T05:53:11.217Z,11.10
2019-05-13T05:55:41.218Z,11.40
2019-05-13T05:58:12.076Z,11.60
2019-05-13T06:00:41.478Z,11.60
2019-05-13T06:03:08.537Z,11.60
2019-05-13T06:05:36.006Z,11.80
2019-05-13T06:08:03.204Z,12.30
2019-05-13T06:10:44.235Z,12.40
2019-05-13T06:13:01.812Z,12.50
2019-05-13T06:15:31.487Z,12.30
2019-05-13T06:17:58.491Z,12.80
2019-05-13T06:20:27.166Z,13.30
2019-05-13T06:22:54.293Z,13.40
2019-05-13T06:25:23.411Z,13.30
2019-05-13T06:27:51.247Z,13.40
2019-05-13T06:30:18.461Z,13.80
2019-05-13T06:32:45.295Z,14.30
2019-05-13T06:35:12.470Z,13.60
2019-05-13T06:37:41.436Z,13.90
2019-05-13T06:40:08.433Z,13.70
2019-05-13T06:42:35.513Z,13.60
2019-05-13T06:45:02.586Z,13.30
2019-05-13T06:47:32.515Z,13.60
2019-05-13T06:49:59.308Z,13.80
2019-05-13T06:52:26.129Z,14.40
2019-05-13T06:54:52.934Z,14.70
2019-05-13T06:57:21.975Z,14.60
2019-05-13T06:59:49.456Z,15.50
2019-05-13T07:02:16.695Z,15.80
2019-05-13T07:04:43.591Z,15.80
2019-05-13T07:07:16.961Z,15.70
2019-05-13T07:09:39.336Z,15.70
2019-05-13T07:12:06.187Z,15.10
2019-05-13T07:14:33.014Z,15.10
2019-05-13T07:17:01.996Z,15.50
2019-05-13T07:19:28.700Z,16.20
2019-05-13T07:21:55.507Z,16.70
2019-05-13T07:24:22.385Z,17.60
2019-05-13T07:26:49.205Z,17.50
2019-05-13T07:29:16.507Z,17.30
2019-05-13T07:31:44.263Z,17.60
2019-05-13T07:34:11.710Z,17.30
2019-05-13T07:36:39.038Z,17.40
2019-05-13T07:39:07.470Z,17.50
2019-05-13T07:41:39.195Z,18.30
2019-05-13T07:44:04.026Z,18.80
2019-05-13T07:46:32.291Z,19.50
2019-05-13T07:49:01.919Z,19.20
2019-05-13T07:51:28.126Z,18.40
2019-05-13T07:53:54.974Z,18.30
2019-05-13T07:56:22.046Z,18.70
2019-05-13T07:58:48.910Z,18.70
2019-05-13T08:01:15.735Z,17.90
2019-05-13T08:03:42.902Z,18.00
2019-05-13T08:06:11.140Z,18.60
2019-05-13T08:08:38.451Z,18.90
2019-05-13T08:11:05.437Z,18.20
2019-05-13T08:13:32.275Z,18.90
2019-05-13T08:16:01.672Z,19.20
2019-05-13T08:18:28.311Z,18.20
2019-05-13T08:20:55.102Z,18.10
2019-05-13T08:23:21.934Z,18.70
2019-05-13T08:25:51.327Z,19.60
2019-05-13T08:28:18.042Z,20.20
2019-05-13T08:30:45.105Z,20.50
2019-05-13T08:33:12.468Z,20.70
2019-05-13T08:35:41.746Z,20.60
2019-05-13T08:38:08.416Z,20.40
2019-05-13T08:40:35.527Z,19.40
2019-05-13T08:43:02.609Z,20.60
2019-05-13T08:45:31.481Z,21.60
2019-05-13T08:47:58.535Z,22.10
2019-05-13T08:50:25.391Z,22.00
2019-05-13T08:52:52.210Z,21.50
2019-05-13T08:55:21.469Z,20.50
2019-05-13T08:57:48.004Z,20.20
2019-05-13T09:00:21.859Z,21.10
2019-05-13T09:02:48.693Z,21.90
2019-05-13T09:05:15.814Z,22.70
2019-05-13T09:07:42.634Z,23.30
2019-05-13T09:10:09.548Z,23.10
2019-05-13T09:12:40.182Z,22.80
2019-05-13T09:15:05.955Z,21.40
2019-05-13T09:17:32.928Z,21.70
2019-05-13T09:20:02.499Z,20.10
2019-05-13T09:22:28.582Z,21.40
2019-05-13T09:24:55.419Z,22.30
2019-05-13T09:27:22.655Z,21.10
2019-05-13T09:29:51.847Z,21.10
2019-05-13T09:32:21.335Z,21.60
2019-05-13T09:34:47.773Z,22.50
2019-05-13T09:37:14.966Z,24.00
2019-05-13T09:39:41.804Z,24.40
2019-05-13T09:42:08.858Z,24.20
2019-05-13T09:44:35.735Z,20.80
2019-05-13T09:47:03.008Z,19.20
2019-05-13T09:49:32.983Z,20.60
2019-05-13T09:52:01.439Z,19.90
2019-05-13T09:54:27.670Z,21.40
2019-05-13T09:56:54.630Z,21.80
2019-05-13T09:59:22.149Z,20.10
2019-05-13T10:01:51.686Z,19.40
2019-05-13T10:04:17.999Z,21.50
2019-05-13T10:06:44.983Z,20.50
2019-05-13T10:09:12.690Z,18.40
2019-05-13T10:11:39.769Z,16.80
2019-05-13T10:14:06.726Z,15.80
2019-05-13T10:16:33.542Z,16.70
2019-05-13T10:19:01.640Z,19.40
2019-05-13T10:21:29.083Z,19.90
2019-05-13T10:23:58.822Z,21.30
2019-05-13T10:29:48.600Z,21.80
2019-05-13T10:32:15.765Z,23.10
2019-05-13T10:34:44.397Z,23.90
2019-05-13T10:37:11.561Z,24.00
2019-05-13T10:39:38.686Z,24.80
2019-05-13T10:42:05.619Z,23.90
2019-05-13T10:44:32.556Z,22.20
2019-05-13T10:46:59.478Z,20.20
2019-05-13T10:49:28.177Z,18.80
2019-05-13T10:51:55.140Z,17.30
2019-05-13T10:54:22.095Z,17.00
2019-05-13T10:56:48.921Z,16.30
2019-05-13T10:59:15.805Z,17.00
2019-05-13T11:01:42.886Z,19.50
2019-05-13T11:04:13.319Z,21.60
2019-05-13T11:06:38.653Z,23.00
2019-05-13T11:09:06.774Z,23.30
2019-05-13T11:11:33.689Z,25.70
2019-05-13T11:14:10.204Z,23.00
2019-05-13T11:16:29.341Z,21.50
2019-05-13T11:18:56.352Z,18.60
2019-05-13T11:21:23.181Z,17.30
2019-05-13T11:23:51.870Z,17.40
2019-05-13T11:26:18.798Z,19.10
2019-05-13T11:28:45.670Z,18.80
2019-05-13T11:31:12.571Z,18.70
2019-05-13T11:33:42.320Z,19.40
2019-05-13T11:36:08.214Z,20.90
2019-05-13T11:38:35.075Z,22.90
2019-05-13T11:41:02.728Z,23.60
2019-05-13T11:43:33.124Z,22.50
2019-05-13T11:46:02.296Z,21.20
2019-05-13T11:48:28.529Z,19.40
2019-05-13T11:50:55.311Z,18.00
2019-05-13T11:53:38.356Z,17.90
2019-05-13T11:55:52.264Z,17.00
2019-05-13T11:58:19.404Z,17.60
2019-05-13T12:00:53.316Z,20.80
2019-05-13T12:03:23.041Z,24.40
2019-05-13T12:05:53.434Z,25.90
2019-05-13T12:08:22.464Z,27.50
2019-05-13T12:10:47.857Z,25.10
2019-05-13T12:13:14.857Z,22.60
2019-05-13T12:15:48.685Z,19.90
2019-05-13T12:18:12.684Z,19.80
2019-05-13T12:20:41.962Z,21.40
2019-05-13T12:23:08.328Z,24.00
2019-05-13T12:25:36.290Z,25.80
2019-05-13T12:28:03.480Z,23.70
2019-05-13T12:30:33.705Z,21.40
2019-05-13T12:32:59.114Z,23.60
2019-05-13T12:35:25.921Z,24.60
2019-05-13T12:37:53.443Z,25.10
2019-05-13T12:40:23.101Z,24.30
2019-05-13T12:42:53.661Z,22.40
2019-05-13T12:45:18.690Z,19.50
2019-05-13T12:47:45.486Z,18.00
2019-05-13T12:50:13.849Z,17.60
2019-05-13T12:52:43.788Z,20.40
2019-05-13T12:55:13.774Z,20.80
2019-05-13T12:57:38.833Z,21.80
2019-05-13T13:00:06.674Z,19.10
2019-05-13T13:02:33.692Z,17.60
2019-05-13T13:05:14.101Z,16.80
2019-05-13T13:07:32.465Z,20.30
2019-05-13T13:09:58.299Z,21.50
2019-05-13T13:12:34.381Z,18.50
2019-05-13T13:14:54.659Z,17.90
2019-05-13T13:17:24.072Z,17.40
2019-05-13T13:19:54.728Z,16.70
2019-05-13T13:22:25.319Z,18.70
2019-05-13T13:24:55.742Z,22.60
2019-05-13T13:27:37.084Z,25.60
2019-05-13T13:29:48.337Z,25.40
2019-05-13T13:32:15.218Z,24.60
2019-05-13T13:34:44.007Z,24.80
2019-05-13T13:37:11.041Z,24.70
2019-05-13T13:39:38.399Z,21.60
2019-05-13T13:42:05.935Z,19.10
2019-05-13T13:44:35.005Z,17.50
2019-05-13T13:47:02.290Z,16.90
2019-05-13T13:49:33.727Z,16.90
2019-05-13T13:51:57.858Z,18.90
2019-05-13T13:54:24.860Z,21.00
2019-05-13T13:56:56.017Z,19.40
2019-05-13T13:59:24.753Z,17.40
2019-05-13T14:01:54.538Z,16.50
2019-05-13T14:04:18.687Z,16.50
2019-05-13T14:09:14.271Z,16.70
2019-05-13T14:11:41.955Z,19.40
2019-05-13T14:14:09.428Z,21.60
2019-05-13T14:16:36.441Z,21.80
2019-05-13T14:19:03.758Z,21.10
2019-05-13T14:21:32.419Z,21.20
2019-05-13T14:23:59.476Z,20.50
2019-05-13T14:26:26.499Z,19.00
2019-05-13T14:28:53.849Z,19.50
2019-05-13T14:31:21.570Z,20.90
2019-05-13T14:33:48.830Z,21.10
2019-05-13T14:36:17.577Z,21.30
2019-05-13T14:38:44.362Z,20.90
2019-05-13T14:41:12.290Z,21.40
2019-05-13T14:43:39.587Z,21.80
2019-05-13T14:46:06.407Z,21.60
2019-05-13T14:48:33.287Z,21.70
2019-05-13T14:51:01.877Z,22.30
2019-05-13T14:53:28.842Z,23.20
2019-05-13T14:55:55.814Z,23.20
2019-05-13T14:58:23.047Z,23.60
2019-05-13T15:01:10.428Z,23.40
2019-05-13T15:03:18.659Z,23.40
2019-05-13T15:05:45.544Z,24.60
2019-05-13T15:08:12.592Z,23.30
2019-05-13T15:10:41.761Z,20.80
2019-05-13T15:13:08.499Z,19.60
2019-05-13T15:15:35.496Z,18.80
2019-05-13T15:18:02.374Z,17.60
2019-05-13T15:20:29.239Z,16.90
2019-05-13T15:22:56.172Z,16.50
2019-05-13T15:25:23.104Z,16.30
2019-05-13T15:27:52.784Z,15.90
2019-05-13T15:30:21.847Z,15.90
2019-05-13T15:32:48.940Z,17.60
2019-05-13T15:35:16.012Z,18.50
2019-05-13T15:37:43.198Z,19.20
2019-05-13T15:40:11.736Z,19.00
2019-05-13T15:42:39.137Z,18.20
2019-05-13T15:45:07.599Z,17.10
2019-05-13T15:47:34.661Z,16.50
2019-05-13T15:50:02.397Z,16.50
2019-05-13T15:52:31.720Z,16.40
2019-05-13T15:54:58.714Z,16.50
2019-05-13T15:57:25.559Z,16.20
2019-05-13T15:59:52.521Z,16.10
2019-05-13T16:02:19.353Z,15.70
2019-05-13T16:04:52.560Z,15.60
2019-05-13T16:07:14.877Z,15.60
2019-05-13T16:09:42.167Z,15.50
2019-05-13T16:12:09.255Z,15.40
2019-05-13T16:14:36.152Z,15.40
2019-05-13T16:17:03.245Z,15.30
2019-05-13T16:19:32.690Z,15.20
2019-05-13T16:22:01.190Z,15.00
2019-05-13T16:24:27.828Z,15.10
2019-05-13T16:26:54.779Z,15.10
2019-05-13T16:29:22.542Z,15.10
2019-05-13T16:31:51.861Z,14.80
2019-05-13T16:34:19.146Z,14.80
2019-05-13T16:36:45.989Z,14.70
2019-05-13T16:39:12.827Z,14.70
2019-05-13T16:41:42.395Z,14.60
2019-05-13T16:44:08.562Z,14.60
2019-05-13T16:46:35.645Z,14.60
2019-05-13T16:49:02.556Z,14.60
2019-05-13T16:51:31.613Z,14.40
2019-05-13T16:53:58.234Z,14.40
2019-05-13T16:56:29.790Z,14.30
2019-05-13T16:58:53.979Z,14.30
2019-05-13T17:01:21.929Z,14.20
2019-05-13T17:03:51.179Z,14.20
2019-05-13T17:06:18.029Z,14.10
2019-05-13T17:08:45.190Z,14.10
2019-05-13T17:11:12.046Z,14.00
2019-05-13T17:13:39.008Z,13.80
2019-05-13T17:16:06.897Z,13.90
2019-05-13T17:18:33.741Z,13.80
2019-05-13T17:21:01.448Z,13.70
2019-05-13T17:23:28.457Z,13.70
2019-05-13T17:25:55.368Z,13.50
2019-05-13T17:28:22.205Z,13.40
2019-05-13T17:30:49.218Z,13.50
2019-05-13T17:33:16.141Z,13.50
2019-05-13T17:35:42.943Z,13.40
2019-05-13T17:38:11.374Z,13.30
2019-05-13T17:40:38.628Z,13.20
2019-05-13T17:43:05.424Z,13.10
2019-05-13T17:45:32.223Z,13.00
2019-05-13T17:48:00.924Z,12.90
2019-05-13T17:50:28.055Z,12.80
2019-05-13T17:52:54.965Z,12.70
2019-05-13T17:55:22.325Z,12.80
2019-05-13T17:57:49.409Z,13.20
2019-05-13T18:00:16.630Z,13.40
2019-05-13T18:02:43.488Z,13.60
2019-05-13T18:05:12.071Z,13.70
2019-05-13T18:07:39.222Z,13.60
2019-05-13T18:10:06.282Z,13.40
2019-05-13T18:12:33.125Z,13.20
2019-05-13T18:15:02.256Z,12.80
2019-05-13T18:17:31.038Z,12.40
2019-05-13T18:19:57.424Z,12.00
2019-05-13T18:22:25.336Z,11.70
2019-05-13T18:24:52.417Z,11.30
2019-05-13T18:27:21.884Z,11.10
2019-05-13T18:29:48.355Z,10.80
2019-05-13T18:32:15.282Z,10.60
2019-05-13T18:34:42.107Z,10.40
2019-05-13T18:37:11.613Z,10.40
2019-05-13T18:39:37.699Z,10.40
2019-05-13T18:42:04.708Z,10.30
2019-05-13T18:44:31.842Z,10.30
2019-05-13T18:47:01.308Z,10.10
2019-05-13T18:49:27.479Z,10.00
2019-05-13T18:51:54.553Z,9.80
2019-05-13T18:54:21.883Z,9.40
2019-05-13T18:56:48.875Z,9.20
2019-05-13T18:59:15.721Z,8.90
2019-05-13T19:01:42.703Z,8.80
2019-05-13T19:04:11.505Z,8.70
2019-05-13T19:06:38.382Z,8.50
2019-05-13T19:09:05.959Z,8.30
2019-05-13T19:11:32.777Z,8.10
2019-05-13T19:14:00.127Z,8.00
2019-05-13T19:16:26.968Z,7.80
2019-05-13T19:18:53.839Z,7.50
2019-05-13T19:21:21.881Z,7.30
2019-05-13T19:23:51.181Z,7.00
2019-05-13T19:26:21.801Z,6.70
2019-05-13T19:28:51.439Z,6.60
2019-05-13T19:31:17.770Z,6.50
2019-05-13T19:33:44.621Z,6.30
2019-05-13T19:36:11.862Z,6.10
2019-05-13T19:38:38.950Z,6.00
2019-05-13T19:41:05.998Z,6.10
2019-05-13T19:43:33.034Z,6.10
2019-05-13T19:46:01.590Z,6.20
2019-05-13T19:48:29.028Z,6.10
2019-05-13T19:50:56.081Z,6.10
2019-05-13T19:53:22.936Z,6.10
2019-05-13T19:55:51.860Z,6.00
2019-05-13T19:58:18.785Z,5.90
2019-05-13T20:00:45.591Z,5.70
2019-05-13T20:03:12.406Z,5.70
2019-05-13T20:05:41.255Z,5.60
2019-05-13T20:08:08.114Z,5.50
2019-05-13T20:10:35.244Z,5.50
2019-05-13T20:13:02.150Z,5.40
2019-05-13T20:15:31.374Z,5.30
2019-05-13T20:18:01.315Z,5.20
2019-05-13T20:20:27.725Z,5.10
2019-05-13T20:22:54.832Z,4.90
2019-05-13T20:25:21.935Z,4.90
2019-05-13T20:27:48.789Z,4.80
2019-05-13T20:30:16.126Z,4.60
2019-05-13T20:32:43.201Z,4.60
2019-05-13T20:35:11.533Z,4.50
2019-05-13T20:37:38.574Z,4.40
2019-05-13T20:40:05.486Z,4.40
2019-05-13T20:42:32.396Z,4.30
2019-05-13T20:44:59.211Z,4.20
2019-05-13T20:47:26.018Z,4.20
2019-05-13T20:50:01.479Z,4.10
2019-05-13T20:52:22.222Z,3.90
2019-05-13T20:54:51.147Z,3.80
2019-05-13T20:57:18.215Z,3.70
2019-05-13T20:59:45.157Z,3.70
2019-05-13T21:02:12.521Z,3.70
2019-05-13T21:04:39.570Z,3.70
2019-05-13T21:07:06.423Z,3.70
2019-05-13T21:09:33.229Z,3.70
2019-05-13T21:12:01.800Z,3.80
2019-05-13T21:14:28.777Z,3.90
2019-05-13T21:16:55.605Z,3.90
2019-05-13T21:19:22.399Z,3.90
2019-05-13T21:21:51.073Z,3.80
2019-05-13T21:24:17.946Z,3.90
2019-05-13T21:26:44.769Z,3.70
2019-05-13T21:29:11.633Z,3.80
2019-05-13T21:31:38.564Z,3.80
2019-05-13T21:34:05.378Z,3.90
2019-05-13T21:36:32.294Z,4.10
2019-05-13T21:39:01.131Z,5.40
2019-05-13T21:41:27.946Z,5.90
2019-05-13T21:43:54.824Z,6.30
2019-05-13T21:46:21.633Z,6.50
2019-05-13T21:48:49.422Z,6.40
2019-05-13T21:51:16.462Z,6.40
2019-05-13T21:53:43.292Z,6.20
2019-05-13T21:56:12.154Z,6.20
2019-05-13T21:58:38.857Z,6.10
2019-05-13T22:01:05.685Z,6.00
2019-05-13T22:03:33.582Z,6.00
2019-05-13T22:06:01.911Z,6.00
2019-05-13T22:08:29.082Z,6.10
2019-05-13T22:10:55.911Z,6.10
2019-05-13T22:13:22.839Z,6.10
2019-05-13T22:15:52.166Z,6.10
2019-05-13T22:18:18.586Z,6.20
2019-05-13T22:20:50.242Z,6.10
2019-05-13T22:23:14.498Z,6.10
2019-05-13T22:25:43.656Z,5.90
2019-05-13T22:28:11.821Z,5.70
2019-05-13T22:30:40.742Z,5.60
2019-05-13T22:33:07.721Z,5.40
2019-05-13T22:35:34.544Z,5.30
2019-05-13T22:38:01.701Z,5.20
2019-05-13T22:40:28.765Z,5.20
2019-05-13T22:42:56.592Z,5.00
2019-05-13T22:45:24.143Z,4.90
2019-05-13T22:47:52.058Z,4.90
2019-05-13T22:50:19.145Z,4.80
2019-05-13T22:52:46.305Z,4.80
2019-05-13T22:55:13.626Z,4.80
2019-05-13T22:57:41.924Z,4.80
2019-05-13T23:00:11.662Z,4.80
2019-05-13T23:02:42.057Z,4.80
2019-05-13T23:05:11.137Z,4.90
2019-05-13T23:07:37.472Z,4.90
2019-05-13T23:10:04.683Z,5.00
2019-05-13T23:12:31.529Z,5.10
2019-05-13T23:14:58.419Z,5.20
2019-05-13T23:17:25.238Z,5.20
2019-05-13T23:19:52.397Z,5.30
2019-05-13T23:22:19.295Z,5.20
2019-05-13T23:24:46.315Z,5.30
2019-05-13T23:27:14.825Z,5.30
2019-05-13T23:29:41.809Z,5.40
2019-05-13T23:32:08.617Z,5.30
2019-05-13T23:34:35.494Z,5.30
2019-05-13T23:37:02.392Z,5.20
2019-05-13T23:39:29.237Z,5.10
2019-05-13T23:41:56.289Z,4.90
2019-05-13T23:44:27.845Z,4.70
2019-05-13T23:46:52.430Z,4.50
2019-05-13T23:49:21.100Z,4.30
2019-05-13T23:51:48.220Z,4.20
2019-05-13T23:54:15.304Z,4.00
2019-05-13T23:56:42.104Z,4.00
2019-05-13T23:59:11.169Z,4.00
